createdAt,value
2023-01-21T00:01:04.234Z,4.32
2023-01-21T00:03:31.202Z,4.17
2023-01-21T00:05:57.844Z,4.07
2023-01-21T00:08:25.259Z,4.28
2023-01-21T00:10:51.914Z,4.14
2023-01-21T00:13:18.573Z,4.25
2023-01-21T00:15:45.442Z,4.61
2023-01-21T00:18:12.152Z,4.60
2023-01-21T00:20:38.881Z,4.85
2023-01-21T00:23:05.608Z,4.88
2023-01-21T00:25:32.236Z,5.34
2023-01-21T00:27:59.294Z,5.46
2023-01-21T00:30:25.945Z,5.60
2023-01-21T00:32:52.690Z,5.46
2023-01-21T00:35:19.295Z,5.86
2023-01-21T00:37:46.557Z,5.88
2023-01-21T00:40:13.618Z,5.71
2023-01-21T00:42:40.253Z,6.59
2023-01-21T00:45:07.784Z,6.19
2023-01-21T00:47:34.433Z,5.53
2023-01-21T00:50:01.110Z,5.67
2023-01-21T00:52:27.717Z,5.25
2023-01-21T00:54:54.603Z,5.24
2023-01-21T00:57:21.299Z,5.04
2023-01-21T00:59:48.029Z,4.74
2023-01-21T01:02:14.645Z,4.61
2023-01-21T01:04:41.315Z,3.90
2023-01-21T01:07:07.938Z,3.54
2023-01-21T01:09:34.591Z,3.76
2023-01-21T01:12:01.260Z,3.57
2023-01-21T01:14:27.887Z,3.81
2023-01-21T01:16:54.575Z,3.70
2023-01-21T01:19:21.288Z,3.66
2023-01-21T01:21:47.901Z,3.66
2023-01-21T01:24:14.558Z,3.29
2023-01-21T01:26:42.215Z,3.57
2023-01-21T01:29:13.030Z,3.81
2023-01-21T01:31:39.826Z,3.22
2023-01-21T01:34:06.875Z,3.33
2023-01-21T01:36:33.540Z,3.26
2023-01-21T01:39:00.223Z,3.22
2023-01-21T01:41:28.897Z,3.18
2023-01-21T01:44:03.136Z,2.49
2023-01-21T01:46:33.210Z,2.60
2023-01-21T01:49:13.679Z,2.68
2023-01-21T01:51:44.243Z,2.28
2023-01-21T01:54:15.733Z,2.36
2023-01-21T01:56:49.218Z,2.38
2023-01-21T01:59:16.692Z,2.35
2023-01-21T02:01:43.634Z,2.76
2023-01-21T02:04:20.250Z,2.60
2023-01-21T02:06:48.884Z,2.40
2023-01-21T02:09:15.548Z,2.39
2023-01-21T02:11:42.357Z,2.46
2023-01-21T02:14:09.126Z,2.98
2023-01-21T02:16:44.176Z,2.73
2023-01-21T02:19:16.714Z,2.81
2023-01-21T02:22:17.067Z,3.10
2023-01-21T02:24:49.563Z,3.16
2023-01-21T02:27:42.762Z,3.25
2023-01-21T02:30:51.635Z,3.11
2023-01-21T02:33:50.864Z,3.39
2023-01-21T02:36:57.258Z,3.15
2023-01-21T02:39:42.148Z,3.00
2023-01-21T02:42:37.660Z,3.25
2023-01-21T02:45:17.606Z,3.41
2023-01-21T02:47:55.629Z,3.08
2023-01-21T02:50:33.276Z,3.12
2023-01-21T02:53:02.521Z,3.25
2023-01-21T02:55:33.511Z,3.23
2023-01-21T02:58:05.843Z,3.21
2023-01-21T03:00:44.638Z,3.34
2023-01-21T03:03:22.073Z,3.29
2023-01-21T03:06:14.741Z,3.93
2023-01-21T03:08:53.853Z,5.73
2023-01-21T03:11:22.360Z,7.95
2023-01-21T03:14:09.105Z,9.97
2023-01-21T03:16:44.918Z,11.76
2023-01-21T03:19:14.825Z,11.78
2023-01-21T03:21:42.747Z,11.38
2023-01-21T03:24:14.204Z,10.81
2023-01-21T03:26:50.477Z,9.42
2023-01-21T03:29:24.043Z,9.15
2023-01-21T03:32:00.356Z,7.18
2023-01-21T03:34:34.829Z,6.18
2023-01-21T03:37:09.419Z,5.99
2023-01-21T03:39:44.225Z,6.16
2023-01-21T03:42:12.663Z,6.15
2023-01-21T03:44:40.065Z,5.84
2023-01-21T03:47:27.838Z,6.37
2023-01-21T03:50:04.206Z,6.01
2023-01-21T03:52:31.393Z,5.91
2023-01-21T03:54:59.161Z,5.73
2023-01-21T03:57:25.792Z,5.82
2023-01-21T03:59:53.377Z,5.94
2023-01-21T04:02:20.395Z,6.04
2023-01-21T04:04:47.799Z,5.79
2023-01-21T04:07:16.159Z,6.07
2023-01-21T04:09:43.493Z,6.89
2023-01-21T04:12:10.353Z,7.23
2023-01-21T04:14:37.698Z,7.51
2023-01-21T04:17:05.282Z,7.79
2023-01-21T04:19:31.938Z,8.46
2023-01-21T04:21:58.628Z,8.15
2023-01-21T04:24:25.394Z,9.12
2023-01-21T04:26:52.406Z,9.42
2023-01-21T04:29:19.372Z,9.83
2023-01-21T04:31:46.190Z,9.66
2023-01-21T04:34:12.915Z,6.85
2023-01-21T04:36:39.518Z,6.13
2023-01-21T04:39:06.191Z,6.25
2023-01-21T04:41:32.877Z,6.61
2023-01-21T04:43:59.722Z,6.39
2023-01-21T04:46:26.364Z,6.60
2023-01-21T04:48:52.961Z,6.28
2023-01-21T04:51:19.769Z,6.37
2023-01-21T04:53:46.407Z,6.58
2023-01-21T04:56:13.029Z,6.41
2023-01-21T04:58:39.665Z,7.02
2023-01-21T05:01:06.468Z,7.21
2023-01-21T05:03:33.144Z,8.09
2023-01-21T05:05:59.772Z,8.35
2023-01-21T05:08:26.453Z,8.71
2023-01-21T05:10:53.035Z,8.35
2023-01-21T05:13:19.678Z,8.41
2023-01-21T05:15:46.317Z,8.72
2023-01-21T05:18:12.981Z,9.02
2023-01-21T05:20:39.583Z,9.01
2023-01-21T05:23:06.272Z,10.07
2023-01-21T05:25:32.924Z,11.41
2023-01-21T05:27:59.630Z,12.12
2023-01-21T05:30:26.331Z,11.75
2023-01-21T05:32:54.312Z,10.77
2023-01-21T05:35:23.087Z,11.00
2023-01-21T05:37:49.845Z,10.14
2023-01-21T05:40:18.132Z,9.67
2023-01-21T05:42:46.443Z,10.10
2023-01-21T05:45:13.532Z,9.06
2023-01-21T05:47:40.223Z,9.97
2023-01-21T05:50:07.843Z,9.98
2023-01-21T05:52:34.460Z,8.30
2023-01-21T05:55:02.829Z,6.80
2023-01-21T05:57:30.806Z,5.98
2023-01-21T05:59:58.328Z,5.53
2023-01-21T06:02:25.056Z,5.84
2023-01-21T06:04:51.728Z,6.92
2023-01-21T06:07:18.370Z,6.51
2023-01-21T06:09:44.968Z,5.25
2023-01-21T06:12:11.572Z,4.91
2023-01-21T06:14:38.202Z,4.56
2023-01-21T06:17:04.818Z,4.47
2023-01-21T06:19:31.442Z,4.02
2023-01-21T06:22:00.505Z,3.81
2023-01-21T06:24:27.115Z,3.91
2023-01-21T06:26:53.719Z,4.18
2023-01-21T06:29:20.353Z,3.77
2023-01-21T06:31:47.135Z,4.19
2023-01-21T06:34:13.921Z,4.49
2023-01-21T06:36:40.609Z,5.62
2023-01-21T06:39:07.322Z,6.40
2023-01-21T06:41:33.944Z,6.14
2023-01-21T06:44:00.598Z,6.24
2023-01-21T06:46:27.274Z,6.37
2023-01-21T06:48:53.892Z,6.25
2023-01-21T06:51:20.697Z,6.52
2023-01-21T06:53:47.322Z,6.57
2023-01-21T06:56:13.919Z,6.35
2023-01-21T06:58:41.853Z,6.61
2023-01-21T07:01:08.471Z,6.49
2023-01-21T07:03:35.078Z,6.65
2023-01-21T07:06:01.709Z,6.64
2023-01-21T07:08:28.311Z,6.92
2023-01-21T07:10:55.029Z,6.44
2023-01-21T07:13:21.651Z,6.53
2023-01-21T07:15:48.335Z,7.09
2023-01-21T07:18:14.990Z,7.50
2023-01-21T07:20:41.765Z,7.40
2023-01-21T07:23:09.017Z,7.39
2023-01-21T07:25:35.857Z,6.77
2023-01-21T07:28:02.507Z,6.08
2023-01-21T07:30:29.086Z,5.74
2023-01-21T07:32:55.755Z,5.04
2023-01-21T07:35:22.364Z,4.27
2023-01-21T07:37:48.951Z,3.97
2023-01-21T07:40:15.647Z,3.75
2023-01-21T07:42:42.333Z,3.52
2023-01-21T07:45:09.465Z,3.25
2023-01-21T07:47:36.084Z,3.08
2023-01-21T07:50:02.716Z,3.21
2023-01-21T07:52:29.678Z,3.12
2023-01-21T07:54:56.407Z,3.14
2023-01-21T07:57:23.004Z,2.99
2023-01-21T07:59:49.659Z,3.02
2023-01-21T08:02:16.389Z,3.21
2023-01-21T08:04:43.050Z,2.99
2023-01-21T08:07:13.002Z,3.11
2023-01-21T08:09:40.754Z,3.17
2023-01-21T08:12:09.019Z,3.05
2023-01-21T08:14:35.674Z,3.00
2023-01-21T08:17:02.700Z,2.98
2023-01-21T08:19:29.605Z,2.98
2023-01-21T08:21:56.271Z,2.89
2023-01-21T08:24:23.413Z,3.20
2023-01-21T08:26:50.171Z,3.03
2023-01-21T08:29:16.989Z,3.20
2023-01-21T08:31:43.735Z,3.11
2023-01-21T08:34:10.421Z,3.14
2023-01-21T08:36:37.065Z,3.36
2023-01-21T08:39:03.785Z,3.30
2023-01-21T08:41:31.065Z,3.88
2023-01-21T08:43:57.869Z,4.53
2023-01-21T08:46:24.711Z,5.08
2023-01-21T08:48:51.303Z,5.58
2023-01-21T08:51:18.065Z,6.04
2023-01-21T08:53:44.663Z,6.15
2023-01-21T08:56:11.272Z,5.98
2023-01-21T08:58:37.877Z,6.07
2023-01-21T09:01:10.052Z,5.75
2023-01-21T09:03:37.045Z,5.93
2023-01-21T09:06:05.308Z,5.83
2023-01-21T09:08:32.713Z,5.63
2023-01-21T09:11:01.208Z,6.18
2023-01-21T09:13:32.925Z,6.44
2023-01-21T09:16:00.534Z,6.53
2023-01-21T09:18:27.214Z,7.01
2023-01-21T09:20:54.242Z,7.09
2023-01-21T09:23:20.945Z,7.60
2023-01-21T09:25:48.742Z,8.09
2023-01-21T09:28:15.341Z,7.81
2023-01-21T09:30:41.962Z,7.43
2023-01-21T09:33:08.675Z,6.80
2023-01-21T09:35:35.260Z,6.98
2023-01-21T09:38:02.057Z,6.55
2023-01-21T09:40:28.685Z,6.53
2023-01-21T09:42:55.367Z,6.80
2023-01-21T09:45:22.787Z,7.02
2023-01-21T09:47:51.236Z,7.34
2023-01-21T09:50:22.267Z,6.96
2023-01-21T09:52:59.904Z,6.93
2023-01-21T09:55:53.327Z,6.59
2023-01-21T09:58:35.708Z,6.66
2023-01-21T10:01:31.424Z,6.44
2023-01-21T10:04:26.062Z,6.14
2023-01-21T10:06:59.699Z,6.43
2023-01-21T10:09:45.035Z,6.25
2023-01-21T10:13:02.188Z,6.26
2023-01-21T10:15:28.832Z,6.46
2023-01-21T10:18:10.980Z,6.18
2023-01-21T10:20:48.164Z,6.83
2023-01-21T10:23:24.607Z,6.69
2023-01-21T10:25:51.775Z,7.09
2023-01-21T10:28:25.217Z,6.80
2023-01-21T10:30:55.132Z,6.91
2023-01-21T10:33:25.338Z,7.15
2023-01-21T10:35:54.918Z,7.23
2023-01-21T10:38:32.016Z,7.43
2023-01-21T10:41:05.269Z,7.35
2023-01-21T10:43:43.568Z,7.64
2023-01-21T10:46:39.099Z,7.89
2023-01-21T10:49:46.751Z,7.91
2023-01-21T10:52:33.488Z,8.16
2023-01-21T10:55:02.820Z,8.19
2023-01-21T10:58:04.341Z,8.49
2023-01-21T11:00:40.690Z,8.60
2023-01-21T11:03:29.923Z,8.67
2023-01-21T11:05:59.799Z,8.99
2023-01-21T11:08:27.351Z,9.08
2023-01-21T11:10:54.279Z,9.40
2023-01-21T11:13:21.969Z,9.85
2023-01-21T11:15:53.978Z,9.71
2023-01-21T11:18:35.019Z,10.54
2023-01-21T11:21:24.207Z,10.10
2023-01-21T11:23:55.737Z,10.11
2023-01-21T11:26:27.658Z,10.27
2023-01-21T11:29:17.151Z,10.57
2023-01-21T11:31:46.941Z,10.32
2023-01-21T11:34:17.625Z,10.50
2023-01-21T11:37:08.089Z,10.86
2023-01-21T11:39:39.628Z,10.70
2023-01-21T11:42:15.903Z,10.36
2023-01-21T11:44:51.763Z,10.39
2023-01-21T11:47:37.453Z,10.28
2023-01-21T11:50:23.684Z,10.78
2023-01-21T11:53:07.605Z,10.91
2023-01-21T11:55:46.265Z,11.39
2023-01-21T11:58:24.752Z,11.27
2023-01-21T12:00:55.960Z,11.41
2023-01-21T12:03:30.808Z,11.91
2023-01-21T12:06:00.171Z,11.98
2023-01-21T12:08:31.357Z,12.30
2023-01-21T12:11:01.273Z,12.02
2023-01-21T12:13:46.620Z,12.25
2023-01-21T12:16:16.169Z,12.02
2023-01-21T12:19:07.290Z,12.45
2023-01-21T12:22:16.006Z,12.79
2023-01-21T12:25:07.473Z,11.87
2023-01-21T12:27:49.331Z,12.36
2023-01-21T12:30:41.959Z,12.10
2023-01-21T12:33:37.919Z,12.43
2023-01-21T12:36:17.820Z,12.20
2023-01-21T12:39:06.121Z,12.31
2023-01-21T12:41:36.798Z,12.39
2023-01-21T12:44:47.977Z,12.25
2023-01-21T12:47:29.575Z,12.03
2023-01-21T12:50:11.157Z,12.33
2023-01-21T12:52:58.943Z,11.68
2023-01-21T12:55:35.456Z,12.25
2023-01-21T12:58:11.382Z,11.84
2023-01-21T13:00:45.642Z,11.27
2023-01-21T13:03:39.836Z,11.06
2023-01-21T13:06:18.043Z,10.91
2023-01-21T13:09:10.466Z,10.57
2023-01-21T13:12:01.563Z,10.15
2023-01-21T13:14:42.870Z,9.28
2023-01-21T13:17:33.014Z,8.85
2023-01-21T13:19:59.760Z,8.89
2023-01-21T13:22:51.688Z,8.77
2023-01-21T13:25:41.153Z,8.46
2023-01-21T13:28:24.761Z,9.12
2023-01-21T13:31:07.531Z,8.67
2023-01-21T13:33:48.425Z,9.55
2023-01-21T13:36:45.580Z,9.98
2023-01-21T13:39:20.791Z,9.88
2023-01-21T13:42:06.114Z,9.82
2023-01-21T13:44:57.034Z,8.65
2023-01-21T13:47:58.842Z,7.88
2023-01-21T13:50:58.854Z,7.99
2023-01-21T13:53:47.973Z,7.44
2023-01-21T13:56:42.791Z,7.90
2023-01-21T13:59:37.197Z,7.75
2023-01-21T14:02:29.148Z,7.46
2023-01-21T14:05:37.282Z,7.52
2023-01-21T14:08:12.521Z,8.04
2023-01-21T14:10:52.877Z,7.98
2023-01-21T14:13:22.478Z,7.96
2023-01-21T14:16:08.130Z,8.45
2023-01-21T14:19:27.154Z,8.55
2023-01-21T14:22:08.760Z,8.59
2023-01-21T14:25:00.649Z,8.63
2023-01-21T14:28:11.919Z,8.67
2023-01-21T14:30:49.670Z,8.42
2023-01-21T14:33:29.705Z,8.24
2023-01-21T14:36:13.216Z,8.19
2023-01-21T14:38:39.821Z,8.15
2023-01-21T14:41:10.287Z,8.15
2023-01-21T14:43:36.957Z,8.08
2023-01-21T14:46:26.912Z,8.20
2023-01-21T14:49:06.993Z,7.89
2023-01-21T14:51:50.758Z,8.43
2023-01-21T14:54:25.387Z,8.35
2023-01-21T14:57:13.774Z,8.65
2023-01-21T14:59:44.317Z,8.81
2023-01-21T15:02:30.964Z,8.35
2023-01-21T15:05:01.828Z,8.66
2023-01-21T15:07:38.902Z,8.71
2023-01-21T15:10:16.323Z,8.59
2023-01-21T15:12:55.024Z,8.62
2023-01-21T15:15:34.719Z,8.24
2023-01-21T15:18:23.022Z,8.40
2023-01-21T15:20:56.147Z,8.37
2023-01-21T15:23:31.534Z,8.30
2023-01-21T15:26:07.118Z,9.00
2023-01-21T15:28:48.875Z,8.91
2023-01-21T15:31:21.510Z,8.41
2023-01-21T15:34:01.474Z,8.69
2023-01-21T15:36:33.889Z,9.89
2023-01-21T15:39:12.420Z,9.39
2023-01-21T15:42:03.507Z,9.38
2023-01-21T15:45:04.757Z,9.38
2023-01-21T15:48:10.018Z,9.47
2023-01-21T15:50:59.159Z,9.67
2023-01-21T15:53:56.929Z,9.22
2023-01-21T15:56:43.723Z,9.86
2023-01-21T15:59:26.170Z,9.48
2023-01-21T16:02:24.164Z,9.91
2023-01-21T16:05:18.903Z,9.51
2023-01-21T16:07:48.717Z,9.67
2023-01-21T16:10:34.259Z,9.67
2023-01-21T16:13:16.038Z,10.11
2023-01-21T16:16:39.676Z,10.05
2023-01-21T16:19:27.276Z,9.78
2023-01-21T16:22:02.018Z,9.83
2023-01-21T16:24:32.396Z,10.37
2023-01-21T16:27:17.432Z,10.32
2023-01-21T16:29:44.099Z,10.66
2023-01-21T16:32:19.152Z,11.13
2023-01-21T16:34:47.114Z,11.00
2023-01-21T16:37:17.673Z,11.65
2023-01-21T16:39:45.291Z,12.49
2023-01-21T16:42:37.360Z,12.82
2023-01-21T16:45:20.120Z,13.03
2023-01-21T16:47:55.349Z,12.73
2023-01-21T16:50:27.072Z,13.98
2023-01-21T16:52:56.548Z,14.03
2023-01-21T16:55:26.213Z,15.56
2023-01-21T16:57:55.523Z,16.66
2023-01-21T17:00:30.900Z,15.45
2023-01-21T17:02:59.662Z,15.35
2023-01-21T17:05:36.778Z,14.24
2023-01-21T17:08:11.469Z,14.64
2023-01-21T17:10:46.946Z,14.95
2023-01-21T17:13:15.763Z,14.24
2023-01-21T17:15:59.500Z,14.17
2023-01-21T17:18:40.406Z,14.02
2023-01-21T17:21:18.909Z,14.19
2023-01-21T17:23:57.280Z,14.63
2023-01-21T17:26:32.033Z,14.46
2023-01-21T17:29:07.916Z,14.15
2023-01-21T17:31:42.734Z,15.31
2023-01-21T17:34:15.673Z,15.78
2023-01-21T17:36:44.907Z,14.85
2023-01-21T17:39:12.554Z,14.57
2023-01-21T17:41:41.589Z,15.24
2023-01-21T17:44:22.175Z,14.72
2023-01-21T17:46:54.105Z,15.00
2023-01-21T17:49:24.259Z,15.53
2023-01-21T17:51:54.323Z,14.98
2023-01-21T17:54:26.959Z,15.23
2023-01-21T17:56:59.090Z,14.20
2023-01-21T17:59:31.968Z,15.03
2023-01-21T18:01:59.054Z,14.58
2023-01-21T18:04:26.271Z,15.44
2023-01-21T18:06:54.097Z,15.25
2023-01-21T18:09:23.722Z,15.51
2023-01-21T18:11:52.581Z,16.12
2023-01-21T18:14:21.592Z,16.91
2023-01-21T18:16:48.715Z,16.03
2023-01-21T18:19:29.480Z,16.65
2023-01-21T18:21:56.252Z,16.01
2023-01-21T18:24:23.120Z,18.67
2023-01-21T18:26:49.784Z,16.51
2023-01-21T18:29:16.692Z,16.32
2023-01-21T18:31:43.402Z,16.32
2023-01-21T18:34:11.677Z,16.09
2023-01-21T18:36:40.303Z,16.04
2023-01-21T18:39:20.020Z,16.82
2023-01-21T18:41:47.265Z,18.14
2023-01-21T18:44:15.199Z,17.27
2023-01-21T18:46:42.247Z,16.51
2023-01-21T18:49:20.394Z,17.74
2023-01-21T18:51:47.694Z,16.25
2023-01-21T18:54:16.469Z,16.02
2023-01-21T18:56:45.352Z,16.23
2023-01-21T18:59:15.490Z,16.15
2023-01-21T19:01:44.108Z,16.38
2023-01-21T19:04:16.754Z,16.84
2023-01-21T19:06:44.236Z,16.51
2023-01-21T19:09:22.032Z,16.85
2023-01-21T19:11:49.350Z,15.94
2023-01-21T19:14:16.088Z,17.97
2023-01-21T19:16:44.089Z,16.73
2023-01-21T19:19:12.041Z,16.32
2023-01-21T19:21:39.483Z,18.19
2023-01-21T19:24:07.223Z,16.76
2023-01-21T19:26:35.624Z,16.79
2023-01-21T19:29:03.486Z,16.36
2023-01-21T19:31:32.281Z,16.55
2023-01-21T19:33:59.260Z,16.09
2023-01-21T19:36:26.554Z,15.86
2023-01-21T19:38:57.657Z,16.84
2023-01-21T19:41:25.136Z,16.59
2023-01-21T19:43:51.894Z,15.95
2023-01-21T19:46:18.941Z,17.10
2023-01-21T19:48:45.605Z,16.71
2023-01-21T19:51:12.858Z,15.92
2023-01-21T19:53:39.564Z,17.12
2023-01-21T19:56:07.191Z,16.49
2023-01-21T19:58:33.871Z,17.19
2023-01-21T20:01:00.560Z,17.33
2023-01-21T20:03:30.230Z,16.56
2023-01-21T20:06:01.492Z,15.96
2023-01-21T20:08:30.214Z,16.65
2023-01-21T20:10:56.865Z,16.10
2023-01-21T20:13:23.601Z,15.84
2023-01-21T20:15:52.312Z,15.93
2023-01-21T20:18:26.234Z,15.84
2023-01-21T20:20:53.630Z,15.51
2023-01-21T20:23:23.116Z,15.35
2023-01-21T20:25:56.963Z,15.61
2023-01-21T20:28:26.693Z,15.33
2023-01-21T20:30:54.728Z,15.21
2023-01-21T20:33:23.755Z,14.96
2023-01-21T20:35:54.027Z,16.09
2023-01-21T20:38:40.945Z,15.38
2023-01-21T20:41:07.785Z,15.24
2023-01-21T20:43:34.792Z,16.07
2023-01-21T20:46:05.286Z,15.39
2023-01-21T20:48:40.263Z,15.75
2023-01-21T20:51:07.302Z,15.20
2023-01-21T20:53:34.062Z,15.53
2023-01-21T20:56:14.058Z,15.40
2023-01-21T20:58:40.665Z,15.88
2023-01-21T21:01:07.674Z,15.71
2023-01-21T21:03:34.644Z,15.44
2023-01-21T21:06:02.370Z,15.38
2023-01-21T21:08:29.060Z,16.12
2023-01-21T21:10:55.717Z,15.49
2023-01-21T21:13:22.390Z,15.59
2023-01-21T21:15:50.750Z,16.19
2023-01-21T21:18:17.473Z,15.63
2023-01-21T21:20:44.230Z,15.78
2023-01-21T21:23:14.551Z,16.80
2023-01-21T21:25:44.535Z,15.84
2023-01-21T21:28:16.635Z,16.34
2023-01-21T21:30:43.923Z,16.13
2023-01-21T21:33:22.209Z,15.85
2023-01-21T21:35:49.326Z,16.14
2023-01-21T21:38:18.268Z,15.51
2023-01-21T21:40:45.934Z,16.17
2023-01-21T21:43:21.998Z,15.76
2023-01-21T21:45:49.150Z,16.04
2023-01-21T21:48:25.015Z,15.79
2023-01-21T21:50:58.760Z,15.41
2023-01-21T21:53:25.392Z,15.26
2023-01-21T21:55:52.071Z,15.41
2023-01-21T21:58:18.715Z,15.89
2023-01-21T22:00:45.450Z,15.64
2023-01-21T22:03:12.903Z,15.27
2023-01-21T22:05:39.608Z,15.96
2023-01-21T22:08:06.361Z,15.54
2023-01-21T22:10:32.976Z,16.31
2023-01-21T22:12:59.584Z,16.03
2023-01-21T22:15:26.268Z,15.69
2023-01-21T22:17:52.870Z,14.64
2023-01-21T22:20:19.524Z,15.30
2023-01-21T22:22:48.561Z,15.17
2023-01-21T22:25:15.352Z,15.57
2023-01-21T22:27:42.340Z,15.96
2023-01-21T22:30:09.630Z,15.13
2023-01-21T22:32:36.380Z,15.00
2023-01-21T22:35:03.092Z,15.17
2023-01-21T22:37:29.889Z,14.94
2023-01-21T22:39:56.505Z,15.71
2023-01-21T22:42:23.117Z,14.58
2023-01-21T22:44:49.795Z,14.77
2023-01-21T22:47:16.462Z,14.86
2023-01-21T22:49:43.106Z,14.32
2023-01-21T22:52:09.730Z,14.67
2023-01-21T22:54:36.377Z,14.59
2023-01-21T22:57:03.073Z,14.70
2023-01-21T22:59:29.680Z,14.44
2023-01-21T23:01:56.347Z,13.92
2023-01-21T23:04:23.043Z,14.65
2023-01-21T23:06:49.708Z,14.64
2023-01-21T23:09:16.402Z,13.63
2023-01-21T23:11:43.157Z,13.75
2023-01-21T23:14:10.086Z,14.31
2023-01-21T23:16:36.947Z,13.94
2023-01-21T23:19:03.733Z,14.13
2023-01-21T23:21:30.719Z,14.04
2023-01-21T23:23:57.454Z,14.35
2023-01-21T23:26:24.515Z,13.85
2023-01-21T23:28:54.785Z,13.83
2023-01-21T23:31:23.063Z,13.95
2023-01-21T23:33:51.753Z,13.58
2023-01-21T23:36:19.223Z,13.92
2023-01-21T23:38:46.074Z,13.54
2023-01-21T23:41:15.070Z,13.66
2023-01-21T23:43:41.839Z,13.84
2023-01-21T23:46:14.299Z,13.63
2023-01-21T23:48:40.957Z,13.99
2023-01-21T23:51:12.624Z,13.68
2023-01-21T23:53:39.394Z,13.69
2023-01-21T23:56:25.837Z,13.10
2023-01-21T23:58:53.033Z,13.49
